createdAt,value
2018-01-27T00:04:04.346Z,0
2018-01-27T00:04:57.324Z,0
2018-01-27T00:12:00.093Z,0
2018-01-27T00:37:24.257Z,0
2018-01-27T00:38:16.945Z,0
2018-01-27T00:41:13.580Z,0
2018-01-27T00:42:11.286Z,0
2018-01-27T00:50:03.083Z,0
2018-01-27T01:04:19.569Z,0
2018-01-27T01:25:43.861Z,0
2018-01-27T01:26:37.690Z,0
2018-01-27T01:41:15.914Z,0
2018-01-27T01:43:44.752Z,0
2018-01-27T01:55:56.439Z,0
2018-01-27T01:59:26.268Z,0
2018-01-27T02:00:15.070Z,0
2018-01-27T02:01:03.455Z,0
2018-01-27T02:01:52.219Z,0
2018-01-27T02:02:40.862Z,0
2018-01-27T02:19:42.156Z,0
2018-01-27T02:20:33.247Z,0
2018-01-27T02:23:24.551Z,0
2018-01-27T02:29:06.065Z,0
2018-01-27T02:36:51.336Z,0
2018-01-27T02:50:55.605Z,0
2018-01-27T02:53:43.108Z,0
2018-01-27T03:09:16.551Z,0
2018-01-27T03:12:05.006Z,0
2018-01-27T03:36:23.045Z,0
2018-01-27T03:37:12.997Z,0
2018-01-27T03:38:03.975Z,0
2018-01-27T03:56:14.589Z,0
2018-01-27T03:58:49.975Z,0
2018-01-27T03:59:38.855Z,0
2018-01-27T04:00:27.475Z,0
2018-01-27T04:01:17.830Z,0
2018-01-27T04:02:06.399Z,0
2018-01-27T04:42:55.700Z,0
2018-01-27T04:45:25.105Z,0
2018-01-27T04:46:05.262Z,0
2018-01-27T04:46:45.607Z,0
2018-01-27T04:47:26.009Z,0
2018-01-27T04:48:06.404Z,0
2018-01-27T04:48:46.801Z,0
2018-01-27T04:49:27.181Z,0
2018-01-27T04:50:07.600Z,0
2018-01-27T04:50:47.989Z,0
2018-01-27T04:51:28.359Z,0
2018-01-27T04:52:08.779Z,0
2018-01-27T04:52:49.112Z,0
2018-01-27T04:53:29.600Z,0
2018-01-27T04:54:10.069Z,0
2018-01-27T04:54:50.488Z,0
2018-01-27T04:55:30.856Z,0
2018-01-27T04:56:11.283Z,0
2018-01-27T04:56:51.689Z,0
2018-01-27T04:57:32.080Z,0
2018-01-27T04:58:12.512Z,0
2018-01-27T04:58:52.930Z,0
2018-01-27T04:59:33.343Z,0
2018-01-27T05:00:13.790Z,0
2018-01-27T05:00:54.174Z,0
2018-01-27T05:01:34.529Z,0
2018-01-27T05:02:15.042Z,0
2018-01-27T05:02:55.485Z,0
2018-01-27T05:03:35.861Z,0
2018-01-27T05:04:16.309Z,0
2018-01-27T05:04:56.678Z,0
2018-01-27T05:05:37.053Z,0
2018-01-27T05:06:17.471Z,0
2018-01-27T05:06:57.877Z,0
2018-01-27T05:07:38.239Z,0
2018-01-27T05:08:18.632Z,0
2018-01-27T05:08:59.096Z,0
2018-01-27T05:09:39.509Z,0
2018-01-27T05:10:19.835Z,0
2018-01-27T05:11:00.252Z,0
2018-01-27T05:11:40.649Z,0
2018-01-27T05:12:21.097Z,0
2018-01-27T05:13:01.429Z,0
2018-01-27T05:13:41.933Z,0
2018-01-27T05:14:22.334Z,0
2018-01-27T05:15:02.646Z,0
2018-01-27T05:15:43.152Z,0
2018-01-27T05:16:23.509Z,0
2018-01-27T05:17:03.968Z,0
2018-01-27T05:17:44.369Z,0
2018-01-27T05:18:24.762Z,0
2018-01-27T05:19:05.116Z,0
2018-01-27T05:19:45.539Z,0
2018-01-27T05:20:26.008Z,0
2018-01-27T05:21:06.413Z,0
2018-01-27T05:21:46.793Z,0
2018-01-27T05:22:27.207Z,0
2018-01-27T05:23:07.661Z,0
2018-01-27T05:23:48.002Z,0
2018-01-27T05:24:28.456Z,0
2018-01-27T05:25:08.838Z,0
2018-01-27T05:25:49.293Z,0
2018-01-27T05:26:29.687Z,0
2018-01-27T05:27:10.063Z,0
2018-01-27T05:27:50.500Z,0
2018-01-27T05:28:30.849Z,0
2018-01-27T05:29:11.327Z,0
2018-01-27T05:29:51.760Z,0
2018-01-27T05:30:32.080Z,0
2018-01-27T05:31:12.444Z,0
2018-01-27T05:31:52.821Z,0
2018-01-27T05:32:33.241Z,0
2018-01-27T05:33:13.658Z,0
2018-01-27T05:33:54.057Z,0
2018-01-27T05:34:34.510Z,0
2018-01-27T05:35:14.929Z,0
2018-01-27T05:35:55.341Z,0
2018-01-27T05:36:35.799Z,0
2018-01-27T05:37:16.118Z,0
2018-01-27T05:37:56.553Z,0
2018-01-27T05:38:36.921Z,0
2018-01-27T05:39:17.346Z,0
2018-01-27T05:39:57.696Z,0
2018-01-27T05:40:38.184Z,0
2018-01-27T05:41:18.548Z,0
2018-01-27T05:41:58.961Z,0
2018-01-27T05:42:39.409Z,0
2018-01-27T05:43:19.801Z,0
2018-01-27T05:44:00.197Z,0
2018-01-27T05:44:40.614Z,0
2018-01-27T05:45:21.094Z,0
2018-01-27T05:46:01.522Z,0
2018-01-27T05:46:41.896Z,0
2018-01-27T05:47:22.265Z,0
2018-01-27T05:48:02.688Z,0
2018-01-27T05:48:43.050Z,0
2018-01-27T05:49:23.488Z,0
2018-01-27T05:50:03.892Z,0
2018-01-27T05:50:44.299Z,0
2018-01-27T05:51:24.720Z,0
2018-01-27T05:52:05.185Z,0
2018-01-27T05:52:45.599Z,0
2018-01-27T05:53:25.999Z,0
2018-01-27T05:54:06.381Z,0
2018-01-27T05:54:46.773Z,0
2018-01-27T05:55:27.230Z,0
2018-01-27T05:56:07.564Z,0
2018-01-27T05:56:48.098Z,0
2018-01-27T05:57:28.440Z,0
2018-01-27T05:58:08.793Z,0
2018-01-27T05:58:49.218Z,0
2018-01-27T05:59:29.728Z,0
2018-01-27T06:00:10.106Z,0
2018-01-27T06:00:50.479Z,0
2018-01-27T06:01:30.963Z,0
2018-01-27T06:02:11.369Z,0
2018-01-27T06:02:51.751Z,0
2018-01-27T06:03:32.158Z,0
2018-01-27T06:04:12.601Z,0
2018-01-27T06:04:52.995Z,0
2018-01-27T06:05:33.360Z,0
2018-01-27T06:06:13.776Z,0
2018-01-27T06:06:54.180Z,0
2018-01-27T06:07:34.560Z,0
2018-01-27T06:08:15.025Z,0
2018-01-27T06:08:55.435Z,0
2018-01-27T06:09:35.821Z,0
2018-01-27T06:10:16.263Z,0
2018-01-27T06:10:56.628Z,0
2018-01-27T06:11:37.034Z,0
2018-01-27T06:12:17.370Z,0
2018-01-27T06:12:57.856Z,0
2018-01-27T06:13:38.203Z,0
2018-01-27T06:14:18.603Z,0
2018-01-27T06:14:58.970Z,0
2018-01-27T06:15:39.428Z,0
2018-01-27T06:16:19.876Z,0
2018-01-27T06:17:00.384Z,0
2018-01-27T06:17:40.756Z,0
2018-01-27T06:18:21.148Z,0
2018-01-27T06:19:01.568Z,0
2018-01-27T06:19:41.954Z,0
2018-01-27T06:20:22.295Z,0
2018-01-27T06:21:02.726Z,0
2018-01-27T06:21:43.184Z,0
2018-01-27T06:22:23.521Z,0
2018-01-27T06:23:03.966Z,0
2018-01-27T06:23:44.414Z,0
2018-01-27T06:24:24.780Z,0
2018-01-27T06:25:05.166Z,0
2018-01-27T06:25:45.628Z,0
2018-01-27T06:26:26.077Z,0
2018-01-27T06:27:06.473Z,0
2018-01-27T06:27:46.847Z,0
2018-01-27T06:28:27.192Z,0
2018-01-27T06:29:07.612Z,0
2018-01-27T06:29:48.008Z,0
2018-01-27T06:30:28.456Z,0
2018-01-27T06:31:08.831Z,0
2018-01-27T06:31:49.254Z,0
2018-01-27T06:32:29.584Z,0
2018-01-27T06:33:10.025Z,0
2018-01-27T06:33:50.476Z,0
2018-01-27T06:34:30.837Z,0
2018-01-27T06:35:11.271Z,0
2018-01-27T06:35:51.644Z,0
2018-01-27T06:36:32.116Z,0
2018-01-27T06:37:12.501Z,0
2018-01-27T06:37:52.845Z,0
2018-01-27T06:38:33.274Z,0
2018-01-27T06:39:13.726Z,0
2018-01-27T06:39:54.077Z,0
2018-01-27T06:40:34.548Z,0
2018-01-27T06:41:14.992Z,0
2018-01-27T06:41:55.364Z,0
2018-01-27T06:42:35.784Z,0
2018-01-27T06:43:16.184Z,0
2018-01-27T06:43:56.564Z,0
2018-01-27T06:44:36.975Z,0
2018-01-27T06:45:17.386Z,0
2018-01-27T06:45:57.835Z,0
2018-01-27T06:46:38.317Z,0
2018-01-27T06:47:18.743Z,0
2018-01-27T06:47:59.127Z,0
2018-01-27T06:48:39.531Z,0
2018-01-27T06:49:20.000Z,0
2018-01-27T06:50:00.356Z,0
2018-01-27T06:50:40.737Z,0
2018-01-27T06:51:21.140Z,0
2018-01-27T06:52:02.438Z,0
2018-01-27T06:52:42.014Z,0
2018-01-27T06:53:22.461Z,0
2018-01-27T06:54:02.807Z,0
2018-01-27T06:54:43.216Z,0
2018-01-27T06:55:23.556Z,0
2018-01-27T06:56:04.001Z,0
2018-01-27T06:56:44.458Z,0
2018-01-27T06:57:24.874Z,0
2018-01-27T06:58:05.337Z,0
2018-01-27T06:58:45.773Z,0
2018-01-27T06:59:26.111Z,0
2018-01-27T07:00:06.541Z,0
2018-01-27T07:00:46.960Z,0
2018-01-27T07:01:27.560Z,0
2018-01-27T07:02:07.920Z,0
2018-01-27T07:02:48.856Z,0
2018-01-27T07:03:30.464Z,0
2018-01-27T07:04:10.928Z,0
2018-01-27T07:04:51.450Z,0
2018-01-27T07:05:31.996Z,0
2018-01-27T07:06:12.512Z,0
2018-01-27T07:06:53.209Z,0
2018-01-27T07:07:33.624Z,0
2018-01-27T07:08:14.001Z,0
2018-01-27T07:08:54.476Z,0
2018-01-27T07:09:35.002Z,0
2018-01-27T07:10:15.356Z,0
2018-01-27T07:10:55.817Z,0
2018-01-27T07:11:36.223Z,0
2018-01-27T07:12:16.543Z,0
2018-01-27T07:12:57.038Z,0
2018-01-27T07:13:37.882Z,0
2018-01-27T07:14:18.252Z,0
2018-01-27T07:14:58.640Z,0
2018-01-27T07:15:39.449Z,0
2018-01-27T07:16:19.818Z,0
2018-01-27T07:17:00.445Z,0
2018-01-27T07:17:41.489Z,0
2018-01-27T07:18:22.076Z,0
2018-01-27T07:19:02.493Z,0
2018-01-27T07:19:43.128Z,0
2018-01-27T07:20:23.612Z,0
2018-01-27T07:21:03.999Z,0
2018-01-27T07:21:44.423Z,0
2018-01-27T07:22:24.785Z,0
2018-01-27T07:23:05.179Z,0
2018-01-27T07:23:45.595Z,0
2018-01-27T07:24:26.048Z,0
2018-01-27T07:25:06.507Z,0
2018-01-27T07:25:46.856Z,0
2018-01-27T07:26:27.279Z,0
2018-01-27T07:27:07.674Z,0
2018-01-27T07:27:48.120Z,0
2018-01-27T07:28:28.546Z,0
2018-01-27T07:29:09.050Z,0
2018-01-27T07:29:49.376Z,0
2018-01-27T07:30:29.745Z,0
2018-01-27T07:31:10.304Z,0
2018-01-27T07:31:50.811Z,0
2018-01-27T07:32:31.145Z,0
2018-01-27T07:33:11.607Z,0
2018-01-27T07:33:52.996Z,0
2018-01-27T07:34:44.854Z,0
2018-01-27T07:35:25.385Z,0
2018-01-27T07:36:05.873Z,0
2018-01-27T07:36:46.269Z,0
2018-01-27T07:37:26.676Z,0
2018-01-27T07:38:07.127Z,0
2018-01-27T07:38:47.518Z,0
2018-01-27T07:39:27.959Z,0
2018-01-27T07:40:08.329Z,0
2018-01-27T07:40:48.769Z,0
2018-01-27T07:41:29.136Z,0
2018-01-27T07:42:09.614Z,0
2018-01-27T07:42:50.052Z,0
2018-01-27T07:43:30.388Z,0
2018-01-27T07:44:11.115Z,0
2018-01-27T07:44:52.857Z,0
2018-01-27T07:45:32.122Z,0
2018-01-27T07:46:12.520Z,0
2018-01-27T07:46:52.869Z,0
2018-01-27T07:47:33.269Z,5
2018-01-27T07:48:13.661Z,5
2018-01-27T07:48:54.053Z,5
2018-01-27T07:49:34.416Z,5
2018-01-27T07:50:14.913Z,5
2018-01-27T07:50:55.284Z,5
2018-01-27T07:51:35.709Z,5
2018-01-27T07:52:16.097Z,5
2018-01-27T07:52:56.505Z,5
2018-01-27T07:53:36.840Z,5
2018-01-27T07:54:17.226Z,5
2018-01-27T07:54:57.638Z,5
2018-01-27T07:55:38.058Z,5
2018-01-27T07:56:18.498Z,5
2018-01-27T07:56:58.856Z,5
2018-01-27T07:57:39.250Z,5
2018-01-27T07:58:19.639Z,5
2018-01-27T07:59:00.079Z,5
2018-01-27T07:59:40.468Z,5
2018-01-27T08:00:20.856Z,5
2018-01-27T08:01:01.210Z,5
2018-01-27T08:01:41.628Z,5
2018-01-27T08:02:22.049Z,5
2018-01-27T08:03:02.390Z,5
2018-01-27T08:03:42.852Z,5
2018-01-27T08:04:23.196Z,5
2018-01-27T08:05:03.594Z,5
2018-01-27T08:05:43.971Z,5
2018-01-27T08:06:24.332Z,5
2018-01-27T08:07:04.917Z,5
2018-01-27T08:07:45.298Z,5
2018-01-27T08:08:25.662Z,5
2018-01-27T08:09:06.159Z,5
2018-01-27T08:09:46.554Z,5
2018-01-27T08:10:26.935Z,5
2018-01-27T08:11:07.385Z,5
2018-01-27T08:11:47.791Z,5
2018-01-27T08:12:28.250Z,5
2018-01-27T08:13:08.591Z,5
2018-01-27T08:13:49.014Z,5
2018-01-27T08:14:29.412Z,5
2018-01-27T08:15:09.795Z,5
2018-01-27T08:15:50.216Z,5
2018-01-27T08:16:30.622Z,5
2018-01-27T08:17:11.123Z,5
2018-01-27T08:17:51.498Z,5
2018-01-27T08:18:31.900Z,5
2018-01-27T08:19:12.281Z,5
2018-01-27T08:19:52.690Z,5
2018-01-27T08:20:33.124Z,5
2018-01-27T08:21:13.527Z,10
2018-01-27T08:21:53.915Z,10
2018-01-27T08:22:34.347Z,10
2018-01-27T08:23:14.725Z,10
2018-01-27T08:23:55.184Z,10
2018-01-27T08:24:35.587Z,10
2018-01-27T08:25:15.956Z,10
2018-01-27T08:25:56.331Z,10
2018-01-27T08:26:36.714Z,10
2018-01-27T08:27:17.149Z,10
2018-01-27T08:27:57.472Z,10
2018-01-27T08:28:37.891Z,10
2018-01-27T08:29:18.368Z,15
2018-01-27T08:29:58.694Z,15
2018-01-27T08:30:39.102Z,15
2018-01-27T08:31:19.547Z,15
2018-01-27T08:31:59.994Z,15
2018-01-27T08:32:40.467Z,15
2018-01-27T08:33:20.902Z,15
2018-01-27T08:34:01.352Z,15
2018-01-27T08:34:41.755Z,20
2018-01-27T08:35:22.102Z,20
2018-01-27T08:36:02.477Z,20
2018-01-27T08:36:42.916Z,20
2018-01-27T08:37:24.017Z,20
2018-01-27T08:38:04.004Z,20
2018-01-27T08:38:44.396Z,20
2018-01-27T08:39:24.813Z,20
2018-01-27T08:40:05.150Z,20
2018-01-27T08:40:45.613Z,20
2018-01-27T08:41:26.047Z,25
2018-01-27T08:42:06.377Z,25
2018-01-27T08:42:46.789Z,25
2018-01-27T08:43:27.228Z,20
2018-01-27T08:44:07.563Z,20
2018-01-27T08:44:48.008Z,20
2018-01-27T08:45:28.443Z,20
2018-01-27T08:46:08.847Z,25
2018-01-27T08:46:49.267Z,25
2018-01-27T08:47:29.667Z,30
2018-01-27T08:48:10.031Z,30
2018-01-27T08:48:50.464Z,35
2018-01-27T08:49:30.835Z,35
2018-01-27T08:50:11.226Z,35
2018-01-27T08:50:51.635Z,40
2018-01-27T08:51:32.060Z,40
2018-01-27T08:52:12.462Z,40
2018-01-27T08:52:52.825Z,40
2018-01-27T08:53:33.270Z,40
2018-01-27T08:54:13.673Z,40
2018-01-27T08:54:54.011Z,40
2018-01-27T08:55:34.473Z,40
2018-01-27T08:56:14.874Z,40
2018-01-27T08:56:55.216Z,40
2018-01-27T08:57:35.701Z,40
2018-01-27T08:58:16.117Z,40
2018-01-27T08:58:56.479Z,45
2018-01-27T08:59:36.968Z,45
2018-01-27T09:00:17.354Z,45
2018-01-27T09:00:57.842Z,45
2018-01-27T09:01:38.282Z,45
2018-01-27T09:02:18.731Z,45
2018-01-27T09:02:59.106Z,40
2018-01-27T09:03:39.506Z,40
2018-01-27T09:04:19.919Z,35
2018-01-27T09:05:00.359Z,35
2018-01-27T09:05:40.753Z,40
2018-01-27T09:06:21.133Z,35
2018-01-27T09:07:01.653Z,35
2018-01-27T09:07:42.140Z,35
2018-01-27T09:08:22.544Z,35
2018-01-27T09:09:03.017Z,35
2018-01-27T09:09:43.357Z,35
2018-01-27T09:10:23.794Z,35
2018-01-27T09:11:04.157Z,40
2018-01-27T09:11:44.592Z,40
2018-01-27T09:12:25.067Z,40
2018-01-27T09:13:05.424Z,35
2018-01-27T09:13:46.535Z,35
2018-01-27T09:14:26.745Z,35
2018-01-27T09:15:07.179Z,35
2018-01-27T09:15:47.620Z,35
2018-01-27T09:16:28.057Z,40
2018-01-27T09:17:08.550Z,40
2018-01-27T09:17:48.980Z,40
2018-01-27T09:18:29.314Z,35
2018-01-27T09:19:09.761Z,40
2018-01-27T09:19:50.147Z,40
2018-01-27T09:20:30.532Z,40
2018-01-27T09:21:10.980Z,40
2018-01-27T09:21:51.320Z,40
2018-01-27T09:22:31.736Z,40
2018-01-27T09:23:12.096Z,40
2018-01-27T09:23:52.524Z,40
2018-01-27T09:24:32.894Z,40
2018-01-27T09:25:13.290Z,45
2018-01-27T09:25:53.775Z,45
2018-01-27T09:26:34.149Z,45
2018-01-27T09:27:14.588Z,45
2018-01-27T09:27:54.964Z,45
2018-01-27T09:28:35.336Z,45
2018-01-27T09:29:15.743Z,45
2018-01-27T09:29:56.208Z,45
2018-01-27T09:30:36.647Z,45
2018-01-27T09:31:17.011Z,45
2018-01-27T09:31:58.158Z,45
2018-01-27T09:32:38.428Z,45
2018-01-27T09:33:19.149Z,45
2018-01-27T09:33:59.518Z,45
2018-01-27T09:37:08.338Z,45
2018-01-27T09:38:28.937Z,45
2018-01-27T09:42:44.076Z,50
2018-01-27T09:43:41.193Z,50
2018-01-27T09:44:32.987Z,50
2018-01-27T09:45:25.199Z,50
2018-01-27T09:46:17.619Z,50
2018-01-27T09:47:10.144Z,50
2018-01-27T09:48:02.913Z,50
2018-01-27T09:48:55.994Z,50
2018-01-27T09:49:48.468Z,50
2018-01-27T09:50:31.446Z,50
2018-01-27T09:51:12.010Z,50
2018-01-27T09:51:55.236Z,50
2018-01-27T09:52:35.777Z,50
2018-01-27T09:53:16.326Z,50
2018-01-27T09:53:57.345Z,50
2018-01-27T09:54:39.020Z,50
2018-01-27T09:55:19.670Z,45
2018-01-27T09:55:59.927Z,50
2018-01-27T09:56:40.364Z,45
2018-01-27T09:57:20.768Z,45
2018-01-27T09:58:01.186Z,50
2018-01-27T09:58:41.504Z,50
2018-01-27T09:59:22.028Z,50
2018-01-27T10:00:02.458Z,50
2018-01-27T10:01:36.071Z,50
2018-01-27T10:02:16.289Z,50
2018-01-27T10:02:57.534Z,50
2018-01-27T10:44:14.984Z,45
2018-01-27T10:48:30.201Z,45
2018-01-27T10:53:41.412Z,45
2018-01-27T10:54:29.568Z,45
2018-01-27T10:55:17.187Z,45
2018-01-27T10:56:07.640Z,45
2018-01-27T10:56:54.388Z,45
2018-01-27T10:59:40.908Z,45
2018-01-27T11:00:36.324Z,45
2018-01-27T11:01:35.614Z,45
2018-01-27T11:02:31.456Z,45
2018-01-27T11:03:23.755Z,45
2018-01-27T11:04:16.130Z,45
2018-01-27T11:05:08.853Z,45
2018-01-27T11:05:54.551Z,45
2018-01-27T11:06:36.048Z,45
2018-01-27T11:07:17.788Z,45
2018-01-27T11:07:58.181Z,45
2018-01-27T11:08:38.593Z,45
2018-01-27T11:09:18.923Z,45
2018-01-27T11:09:59.350Z,45
2018-01-27T11:10:39.733Z,45
2018-01-27T11:11:20.182Z,45
2018-01-27T11:12:00.646Z,45
2018-01-27T11:12:41.130Z,45
2018-01-27T11:13:21.486Z,45
2018-01-27T11:14:01.960Z,45
2018-01-27T11:14:42.311Z,45
2018-01-27T11:15:23.121Z,45
2018-01-27T11:16:03.623Z,45
2018-01-27T11:16:44.078Z,45
2018-01-27T11:17:25.847Z,45
2018-01-27T11:18:06.256Z,45
2018-01-27T11:18:46.639Z,45
2018-01-27T11:19:27.131Z,45
2018-01-27T11:20:07.513Z,45
2018-01-27T11:20:47.992Z,45
2018-01-27T11:21:28.513Z,45
2018-01-27T11:22:08.873Z,45
2018-01-27T11:22:49.269Z,45
2018-01-27T11:23:29.889Z,45
2018-01-27T11:24:17.685Z,45
2018-01-27T11:24:58.154Z,45
2018-01-27T11:25:39.070Z,45
2018-01-27T11:26:19.811Z,50
2018-01-27T11:27:00.323Z,50
2018-01-27T11:27:40.693Z,50
2018-01-27T11:30:35.753Z,50
2018-01-27T11:31:33.153Z,50
2018-01-27T11:32:13.453Z,50
2018-01-27T11:32:53.970Z,50
2018-01-27T11:33:36.168Z,50
2018-01-27T11:34:17.855Z,50
2018-01-27T11:35:01.196Z,50
2018-01-27T11:35:40.269Z,50
2018-01-27T11:36:20.927Z,50
2018-01-27T11:37:01.291Z,50
2018-01-27T11:37:42.034Z,50
2018-01-27T11:38:22.569Z,50
2018-01-27T11:39:03.021Z,50
2018-01-27T11:39:43.460Z,50
2018-01-27T11:40:25.286Z,50
2018-01-27T11:41:05.474Z,50
2018-01-27T11:41:46.384Z,50
2018-01-27T11:42:26.919Z,50
2018-01-27T11:43:08.212Z,50
2018-01-27T11:43:48.590Z,50
2018-01-27T11:44:37.697Z,50
2018-01-27T11:45:17.626Z,50
2018-01-27T11:46:08.628Z,50
2018-01-27T11:46:49.190Z,50
2018-01-27T11:47:29.714Z,50
2018-01-27T11:48:11.185Z,50
2018-01-27T11:48:51.296Z,50
2018-01-27T11:49:32.679Z,50
2018-01-27T11:50:21.772Z,50
2018-01-27T11:51:09.706Z,50
2018-01-27T11:51:49.797Z,50
2018-01-27T11:52:30.227Z,50
2018-01-27T11:53:10.540Z,50
2018-01-27T11:53:51.698Z,50
2018-01-27T11:54:32.018Z,45
2018-01-27T11:55:12.559Z,45
2018-01-27T11:55:53.785Z,45
2018-01-27T11:56:33.628Z,45
2018-01-27T11:57:14.061Z,50
2018-01-27T11:57:54.521Z,45
2018-01-27T11:58:34.973Z,45
2018-01-27T11:59:15.275Z,45
2018-01-27T11:59:55.708Z,45
2018-01-27T12:00:36.127Z,45
2018-01-27T12:01:16.523Z,45
2018-01-27T12:01:56.866Z,45
2018-01-27T12:02:37.317Z,45
2018-01-27T12:03:17.801Z,45
2018-01-27T12:03:58.131Z,45
2018-01-27T12:04:38.738Z,45
2018-01-27T12:05:18.960Z,45
2018-01-27T12:05:59.390Z,45
2018-01-27T12:06:39.757Z,45
2018-01-27T12:07:20.191Z,45
2018-01-27T12:08:00.533Z,45
2018-01-27T12:08:40.943Z,45
2018-01-27T12:11:22.517Z,45
2018-01-27T12:12:03.722Z,45
2018-01-27T12:12:47.480Z,45
2018-01-27T12:13:30.328Z,45
2018-01-27T12:14:18.131Z,45
2018-01-27T12:32:53.098Z,45
2018-01-27T12:33:33.133Z,45
2018-01-27T12:34:21.507Z,45
2018-01-27T12:45:35.408Z,45
2018-01-27T12:46:24.645Z,45
2018-01-27T12:47:15.197Z,45
2018-01-27T12:48:05.252Z,45
2018-01-27T12:54:28.178Z,45
2018-01-27T12:55:09.528Z,45
2018-01-27T12:55:53.177Z,45
2018-01-27T12:56:36.253Z,45
2018-01-27T13:04:02.225Z,45
2018-01-27T13:04:52.385Z,45
2018-01-27T13:05:36.514Z,45
2018-01-27T13:06:18.442Z,45
2018-01-27T13:20:00.870Z,40
2018-01-27T13:20:42.259Z,40
2018-01-27T13:26:16.478Z,40
2018-01-27T13:27:05.277Z,40
2018-01-27T13:27:54.289Z,40
2018-01-27T13:28:42.416Z,40
2018-01-27T13:29:31.271Z,40
2018-01-27T13:32:57.365Z,40
2018-01-27T13:33:46.630Z,40
2018-01-27T13:34:34.759Z,40
2018-01-27T13:35:25.221Z,35
2018-01-27T13:36:15.336Z,35
2018-01-27T13:41:18.611Z,35
2018-01-27T13:42:08.247Z,35
2018-01-27T13:42:56.462Z,35
2018-01-27T13:43:46.241Z,35
2018-01-27T13:44:34.844Z,35
2018-01-27T13:49:55.324Z,35
2018-01-27T13:50:43.923Z,35
2018-01-27T13:51:33.374Z,35
2018-01-27T13:52:22.667Z,30
2018-01-27T13:53:09.587Z,30
2018-01-27T13:53:58.311Z,30
2018-01-27T13:54:47.496Z,30
2018-01-27T13:55:38.631Z,30
2018-01-27T13:56:27.164Z,30
2018-01-27T13:57:15.977Z,30
2018-01-27T13:58:04.455Z,30
2018-01-27T14:08:33.462Z,30
2018-01-27T14:17:08.610Z,30
2018-01-27T14:17:50.055Z,30
2018-01-27T14:18:31.682Z,30
2018-01-27T14:19:17.424Z,30
2018-01-27T14:19:59.280Z,30
2018-01-27T14:26:56.142Z,30
2018-01-27T14:27:45.559Z,30
2018-01-27T14:28:34.732Z,30
2018-01-27T14:29:22.990Z,30
2018-01-27T14:30:12.174Z,30
2018-01-27T15:08:51.739Z,25
2018-01-27T15:09:40.813Z,25
2018-01-27T15:10:30.537Z,25
2018-01-27T15:11:19.346Z,25
2018-01-27T15:12:07.771Z,20
2018-01-27T15:31:57.322Z,10
2018-01-27T15:33:35.020Z,10
2018-01-27T15:41:41.416Z,5
2018-01-27T15:42:25.213Z,5
2018-01-27T15:43:07.536Z,5
2018-01-27T15:43:47.815Z,5
2018-01-27T15:44:28.605Z,5
2018-01-27T15:45:09.385Z,5
2018-01-27T15:45:51.213Z,5
2018-01-27T15:56:26.640Z,0
2018-01-27T15:57:07.205Z,0
2018-01-27T15:57:47.791Z,0
2018-01-27T15:58:28.229Z,0
2018-01-27T15:59:08.578Z,0
2018-01-27T15:59:49.121Z,0
2018-01-27T16:00:29.754Z,0
2018-01-27T16:01:10.145Z,0
2018-01-27T16:01:50.762Z,0
2018-01-27T16:02:30.967Z,0
2018-01-27T16:03:11.627Z,0
2018-01-27T16:03:52.076Z,0
2018-01-27T16:04:32.590Z,0
2018-01-27T18:33:04.706Z,0
2018-01-27T18:33:56.425Z,0
2018-01-27T18:34:44.700Z,0
2018-01-27T18:35:34.350Z,0
2018-01-27T18:36:25.865Z,0
2018-01-27T18:53:57.701Z,0
2018-01-27T18:54:46.873Z,0
2018-01-27T18:55:35.073Z,0
2018-01-27T18:56:23.893Z,0
2018-01-27T18:57:12.548Z,0
2018-01-27T19:06:38.141Z,0
2018-01-27T19:20:29.878Z,0
2018-01-27T19:21:18.757Z,0
2018-01-27T19:22:08.887Z,0
2018-01-27T19:22:58.829Z,0
2018-01-27T19:23:47.266Z,0
2018-01-27T19:43:56.773Z,0
2018-01-27T20:01:47.332Z,0
2018-01-27T20:02:35.858Z,0
2018-01-27T20:03:25.030Z,0
2018-01-27T20:04:13.202Z,0
2018-01-27T20:05:02.883Z,0
2018-01-27T20:51:33.571Z,0
2018-01-27T20:52:16.083Z,0
2018-01-27T20:52:57.606Z,0
2018-01-27T20:53:40.107Z,0
2018-01-27T20:54:22.337Z,0
2018-01-27T20:55:08.582Z,0
2018-01-27T20:57:40.749Z,0
2018-01-27T20:58:32.129Z,0
2018-01-27T20:59:20.872Z,0
2018-01-27T21:00:09.258Z,0
2018-01-27T21:00:58.451Z,0
2018-01-27T21:06:40.671Z,0
2018-01-27T21:08:13.550Z,0
2018-01-27T21:08:54.560Z,0
2018-01-27T21:09:50.810Z,0
2018-01-27T21:10:30.234Z,0
2018-01-27T21:11:14.510Z,0
2018-01-27T21:11:55.635Z,0
2018-01-27T21:12:38.655Z,0
2018-01-27T21:13:19.495Z,0
2018-01-27T21:14:03.224Z,0
2018-01-27T21:14:44.417Z,0
2018-01-27T21:44:49.782Z,0
2018-01-27T21:45:30.157Z,0
2018-01-27T21:46:10.599Z,0
2018-01-27T21:46:51.457Z,0
2018-01-27T21:47:31.819Z,0
2018-01-27T21:50:18.518Z,0
2018-01-27T21:51:11.094Z,0
2018-01-27T21:51:57.122Z,0
2018-01-27T21:52:37.506Z,0
2018-01-27T21:53:17.917Z,0
2018-01-27T21:53:58.336Z,0
2018-01-27T21:54:38.629Z,0
2018-01-27T21:55:19.104Z,0
2018-01-27T21:55:59.471Z,0
2018-01-27T21:56:39.843Z,0
2018-01-27T21:57:20.334Z,0
2018-01-27T21:58:00.625Z,0
2018-01-27T21:58:41.058Z,0
2018-01-27T21:59:21.415Z,0
2018-01-27T22:00:01.864Z,0
2018-01-27T22:00:42.275Z,0
2018-01-27T22:01:22.604Z,0
2018-01-27T22:02:03.066Z,0
2018-01-27T22:02:43.415Z,0
2018-01-27T22:03:23.834Z,0
2018-01-27T22:04:04.198Z,0
2018-01-27T22:41:36.758Z,0
2018-01-27T22:42:30.147Z,0
2018-01-27T22:43:22.351Z,0
2018-01-27T22:44:14.561Z,0
2018-01-27T22:45:06.796Z,0
2018-01-27T22:45:59.323Z,0
2018-01-27T22:46:51.891Z,0
2018-01-27T22:47:44.393Z,0
2018-01-27T22:48:36.183Z,0
2018-01-27T22:49:28.096Z,0
2018-01-27T22:50:17.361Z,0
2018-01-27T22:51:07.903Z,0
2018-01-27T22:51:59.679Z,0
2018-01-27T22:55:45.655Z,0
2018-01-27T22:56:33.428Z,0
2018-01-27T22:57:14.647Z,0
2018-01-27T22:58:00.481Z,0
2018-01-27T22:58:45.506Z,0
2018-01-27T22:59:26.372Z,0
2018-01-27T23:00:15.491Z,0
2018-01-27T23:00:56.098Z,0
2018-01-27T23:01:39.933Z,0
2018-01-27T23:05:09.587Z,0
2018-01-27T23:07:40.200Z,0
2018-01-27T23:08:32.639Z,0
2018-01-27T23:09:24.539Z,0
2018-01-27T23:10:04.556Z,0
2018-01-27T23:10:44.955Z,0
2018-01-27T23:11:25.305Z,0
2018-01-27T23:12:05.724Z,0
2018-01-27T23:12:46.186Z,0
2018-01-27T23:17:03.941Z,0
2018-01-27T23:17:44.449Z,0
2018-01-27T23:18:24.959Z,0
2018-01-27T23:19:05.338Z,0
2018-01-27T23:19:45.704Z,0
2018-01-27T23:23:16.250Z,0
2018-01-27T23:24:08.011Z,0
2018-01-27T23:24:58.148Z,0
2018-01-27T23:27:24.028Z,0
2018-01-27T23:28:05.405Z,0
2018-01-27T23:28:46.850Z,0
2018-01-27T23:31:30.424Z,0
2018-01-27T23:32:23.054Z,0
2018-01-27T23:33:15.233Z,0
2018-01-27T23:34:07.495Z,0
2018-01-27T23:34:59.425Z,0
2018-01-27T23:35:51.937Z,0
2018-01-27T23:36:44.006Z,0
2018-01-27T23:37:36.307Z,0
2018-01-27T23:38:28.563Z,0
2018-01-27T23:39:20.787Z,0
2018-01-27T23:40:13.081Z,0
2018-01-27T23:41:05.059Z,0
2018-01-27T23:41:57.493Z,0
2018-01-27T23:42:49.734Z,0
2018-01-27T23:43:41.920Z,0
2018-01-27T23:44:34.308Z,0
2018-01-27T23:45:26.242Z,0
2018-01-27T23:46:19.326Z,0
2018-01-27T23:47:11.047Z,0
2018-01-27T23:48:03.336Z,0
2018-01-27T23:48:55.926Z,0
2018-01-27T23:49:48.466Z,0
2018-01-27T23:50:40.922Z,0
2018-01-27T23:51:33.287Z,0
2018-01-27T23:52:25.487Z,0
2018-01-27T23:53:17.861Z,0
2018-01-27T23:54:10.520Z,0
2018-01-27T23:55:02.909Z,0
2018-01-27T23:55:55.875Z,0
2018-01-27T23:56:48.326Z,0
2018-01-27T23:57:40.519Z,0
2018-01-27T23:58:31.309Z,0
2018-01-27T23:59:11.964Z,0
2018-01-27T23:59:52.321Z,0
